aviador You're here:

LFBC Decoded Metar

CAZAUX in FRANCE
Report Time2018-07-20 20:00:00
UTC Time2018-07-20 20:13:47
Flight Rules vfr VFR
WindVRB at 03 kt
Visibility9999 m
Phenomena:N/A
Clouds:Scattered 036 Hf
Broken 043 Hf
Overcast 052 Hf
Expected CloudBase > 2,800 ft AGL from Temp-Dew spread
Ceiling4,300 ft
Temp20°C (ISA +5)
Dew Point13°C (64% RH)
AAT19.8°C
QNH1017 hPa
Density Alt784 ft
Elevation108 ft
Report Wrong Elevation
Raw Report
METAR LFBC 202000Z AUTO VRB03KT 9999 SCT036 BKN043 OVC052 20/13 Q1017
NOSIG=

Extra information for LFBC:More info

Metar Taf Metar & Taf Last 4 Metars F.Rules Stats Wind Profile Meteogram Temp Stats Airport Information Weather charts Add Link Nearby VenuesMetar ALERT Operation Metar Decoded Social comments